createdAt,value
2023-05-17T00:02:48.922Z,2.73
2023-05-17T00:05:54.536Z,3.00
2023-05-17T00:08:58.663Z,3.23
2023-05-17T00:12:02.708Z,3.10
2023-05-17T00:15:07.939Z,3.20
2023-05-17T00:18:12.106Z,2.70
2023-05-17T00:21:17.715Z,3.43
2023-05-17T00:24:21.711Z,3.03
2023-05-17T00:27:25.784Z,2.90
2023-05-17T00:30:29.877Z,3.10
2023-05-17T00:33:33.818Z,3.33
2023-05-17T00:36:39.269Z,3.13
2023-05-17T00:39:43.197Z,3.10
2023-05-17T00:42:47.248Z,3.87
2023-05-17T00:45:52.197Z,3.17
2023-05-17T00:48:57.627Z,3.10
2023-05-17T00:52:03.557Z,3.80
2023-05-17T00:55:08.358Z,3.70
2023-05-17T00:58:13.090Z,3.87
2023-05-17T01:01:17.212Z,4.20
2023-05-17T01:04:21.786Z,4.10
2023-05-17T01:07:27.349Z,3.83
2023-05-17T01:10:39.390Z,3.73
2023-05-17T01:13:53.951Z,3.83
2023-05-17T01:17:01.354Z,3.77
2023-05-17T01:20:11.140Z,3.67
2023-05-17T01:23:32.576Z,4.13
2023-05-17T01:26:44.368Z,4.53
2023-05-17T01:29:51.576Z,4.53
2023-05-17T01:32:59.281Z,4.20
2023-05-17T01:36:03.685Z,4.37
2023-05-17T01:39:08.991Z,4.90
2023-05-17T01:42:22.341Z,4.67
2023-05-17T01:45:30.321Z,4.63
2023-05-17T01:48:41.608Z,4.40
2023-05-17T01:51:50.434Z,4.30
2023-05-17T01:55:01.097Z,4.63
2023-05-17T01:58:09.228Z,4.57
2023-05-17T02:01:15.076Z,4.27
2023-05-17T02:04:20.932Z,4.67
2023-05-17T02:07:25.067Z,4.30
2023-05-17T02:10:32.483Z,4.87
2023-05-17T02:13:38.020Z,4.20
2023-05-17T02:16:42.100Z,4.77
2023-05-17T02:19:46.136Z,4.80
2023-05-17T02:22:50.276Z,4.43
2023-05-17T02:25:54.091Z,5.10
2023-05-17T02:28:59.791Z,5.17
2023-05-17T02:32:03.821Z,4.80
2023-05-17T02:35:08.773Z,5.73
2023-05-17T02:38:12.737Z,4.97
2023-05-17T02:41:18.435Z,5.50
2023-05-17T02:44:26.277Z,5.77
2023-05-17T02:47:30.537Z,5.13
2023-05-17T02:50:34.677Z,5.03
2023-05-17T02:53:38.935Z,5.00
2023-05-17T02:56:44.567Z,4.63
2023-05-17T02:59:50.342Z,4.67
2023-05-17T03:02:54.427Z,5.13
2023-05-17T03:06:02.756Z,5.23
2023-05-17T03:09:07.334Z,5.33
2023-05-17T03:12:12.037Z,5.33
2023-05-17T03:15:18.269Z,5.27
2023-05-17T03:18:23.109Z,5.20
2023-05-17T03:21:27.734Z,5.37
2023-05-17T03:24:32.723Z,5.30
2023-05-17T03:27:38.003Z,6.77
2023-05-17T03:30:44.330Z,6.07
2023-05-17T03:33:48.691Z,5.73
2023-05-17T03:36:52.574Z,6.53
2023-05-17T03:39:56.233Z,6.30
2023-05-17T03:43:00.603Z,6.87
2023-05-17T03:46:06.674Z,6.80
2023-05-17T03:49:10.787Z,7.07
2023-05-17T03:52:15.536Z,7.40
2023-05-17T03:55:19.435Z,6.93
2023-05-17T03:58:23.733Z,7.23
2023-05-17T04:01:29.112Z,7.07
2023-05-17T04:04:33.171Z,6.70
2023-05-17T04:07:37.187Z,6.97
2023-05-17T04:10:42.488Z,6.70
2023-05-17T04:13:46.541Z,6.97
2023-05-17T04:16:52.054Z,6.47
2023-05-17T04:19:56.534Z,6.83
2023-05-17T04:23:01.141Z,6.73
2023-05-17T04:26:07.807Z,7.00
2023-05-17T04:29:15.915Z,7.60
2023-05-17T04:32:21.742Z,6.97
2023-05-17T04:35:26.074Z,7.30
2023-05-17T04:38:32.033Z,7.60
2023-05-17T04:41:36.370Z,7.30
2023-05-17T04:44:42.796Z,7.73
2023-05-17T04:47:50.719Z,8.07
2023-05-17T04:50:55.131Z,8.57
2023-05-17T04:54:01.296Z,9.20
2023-05-17T04:57:07.716Z,9.10
2023-05-17T05:00:34.828Z,9.33
2023-05-17T05:03:43.057Z,8.73
2023-05-17T05:06:49.021Z,8.67
2023-05-17T05:09:53.414Z,9.80
2023-05-17T05:12:59.727Z,9.67
2023-05-17T05:16:05.527Z,10.17
2023-05-17T05:19:11.439Z,10.20
2023-05-17T05:22:16.354Z,10.30
2023-05-17T05:25:21.693Z,10.43
2023-05-17T05:28:25.949Z,10.37
2023-05-17T05:31:31.009Z,17.47
2023-05-17T05:34:40.251Z,13.13
2023-05-17T05:37:44.774Z,12.60
2023-05-17T05:40:49.674Z,12.90
2023-05-17T05:43:53.727Z,12.13
2023-05-17T05:46:57.792Z,11.43
2023-05-17T05:50:06.269Z,11.27
2023-05-17T05:53:18.834Z,10.70
2023-05-17T05:56:28.569Z,10.50
2023-05-17T05:59:32.815Z,10.27
2023-05-17T06:02:37.783Z,9.90
2023-05-17T06:05:43.530Z,9.47
2023-05-17T06:08:47.815Z,9.40
2023-05-17T06:11:54.991Z,9.57
2023-05-17T06:14:59.037Z,8.93
2023-05-17T06:18:03.143Z,9.00
2023-05-17T06:21:08.783Z,9.23
2023-05-17T06:24:12.816Z,9.03
2023-05-17T06:27:16.826Z,9.90
2023-05-17T06:30:21.027Z,8.20
2023-05-17T06:33:25.186Z,9.37
2023-05-17T06:36:32.534Z,10.17
2023-05-17T06:39:36.984Z,10.00
2023-05-17T06:42:41.293Z,23.60
2023-05-17T06:45:45.288Z,18.67
2023-05-17T06:48:51.225Z,12.70
2023-05-17T06:52:02.893Z,10.70
2023-05-17T06:55:07.868Z,11.03
2023-05-17T06:58:12.112Z,10.33
2023-05-17T07:01:16.143Z,12.83
2023-05-17T07:04:20.726Z,11.43
2023-05-17T07:07:26.446Z,12.50
2023-05-17T07:10:30.852Z,14.70
2023-05-17T07:13:35.213Z,16.10
2023-05-17T07:16:39.231Z,24.83
2023-05-17T07:19:43.407Z,15.43
2023-05-17T07:22:49.555Z,14.70
2023-05-17T07:25:53.619Z,13.50
2023-05-17T07:28:57.997Z,15.87
2023-05-17T07:32:01.994Z,15.23
2023-05-17T07:35:06.318Z,13.53
2023-05-17T07:38:12.194Z,13.03
2023-05-17T07:41:17.392Z,13.70
2023-05-17T07:44:22.036Z,12.57
2023-05-17T07:47:26.256Z,13.63
2023-05-17T07:50:31.051Z,14.73
2023-05-17T07:53:36.607Z,19.33
2023-05-17T07:56:40.767Z,17.30
2023-05-17T07:59:44.777Z,16.63
2023-05-17T08:02:48.838Z,17.20
2023-05-17T08:05:52.890Z,16.93
2023-05-17T08:08:58.632Z,16.83
2023-05-17T08:12:02.938Z,17.97
2023-05-17T08:15:07.984Z,17.87
2023-05-17T08:18:12.277Z,15.83
2023-05-17T08:21:16.398Z,16.73
2023-05-17T08:24:21.834Z,17.23
2023-05-17T08:27:27.292Z,16.10
2023-05-17T08:30:31.855Z,16.90
2023-05-17T08:33:36.931Z,16.57
2023-05-17T08:36:41.001Z,18.63
2023-05-17T08:39:46.767Z,20.43
2023-05-17T08:42:52.209Z,19.03
2023-05-17T08:45:58.151Z,18.23
2023-05-17T08:49:04.734Z,18.63
2023-05-17T08:52:11.593Z,18.93
2023-05-17T08:55:18.511Z,18.40
2023-05-17T08:58:27.627Z,17.80
2023-05-17T09:01:33.230Z,17.37
2023-05-17T09:04:38.150Z,19.07
2023-05-17T09:07:42.667Z,17.77
2023-05-17T09:10:48.269Z,17.73
2023-05-17T09:13:52.476Z,16.07
2023-05-17T09:16:58.862Z,16.97
2023-05-17T09:20:03.114Z,15.67
2023-05-17T09:23:09.996Z,15.67
2023-05-17T09:26:15.846Z,15.80
2023-05-17T09:29:21.268Z,16.17
2023-05-17T09:32:25.499Z,15.27
2023-05-17T09:35:31.049Z,17.63
2023-05-17T09:38:35.309Z,17.00
2023-05-17T09:41:47.358Z,16.93
2023-05-17T09:44:54.889Z,19.40
2023-05-17T09:47:59.596Z,18.67
2023-05-17T09:51:03.817Z,19.97
2023-05-17T09:54:08.697Z,21.33
2023-05-17T09:57:14.433Z,20.47
2023-05-17T10:00:19.976Z,19.93
2023-05-17T10:03:24.267Z,20.40
2023-05-17T10:06:44.756Z,18.90
2023-05-17T10:09:51.733Z,20.13
2023-05-17T10:12:57.730Z,19.10
2023-05-17T10:16:03.552Z,17.10
2023-05-17T10:19:08.190Z,13.20
2023-05-17T10:25:23.809Z,11.40
2023-05-17T10:28:29.914Z,11.33
2023-05-17T10:31:35.054Z,11.67
2023-05-17T10:34:40.661Z,11.60
2023-05-17T10:37:44.780Z,11.77
2023-05-17T10:40:50.114Z,12.30
2023-05-17T10:43:57.144Z,12.53
2023-05-17T10:47:02.249Z,13.80
2023-05-17T10:50:13.526Z,14.60
2023-05-17T10:53:17.589Z,15.03
2023-05-17T10:56:23.789Z,14.23
2023-05-17T10:59:32.355Z,14.23
2023-05-17T11:02:41.776Z,14.27
2023-05-17T11:05:48.107Z,15.10
2023-05-17T11:09:15.801Z,13.23
2023-05-17T11:12:32.117Z,12.23
2023-05-17T11:15:39.089Z,12.20
2023-05-17T11:18:49.157Z,13.87
2023-05-17T11:21:53.335Z,14.07
2023-05-17T11:24:59.150Z,14.30
2023-05-17T11:28:09.277Z,15.00
2023-05-17T11:31:14.831Z,14.63
2023-05-17T11:34:20.274Z,14.77
2023-05-17T11:37:28.656Z,14.07
2023-05-17T11:40:33.828Z,14.90
2023-05-17T11:43:38.551Z,17.03
2023-05-17T11:46:45.335Z,15.33
2023-05-17T11:49:54.358Z,16.80
2023-05-17T11:53:00.530Z,16.63
2023-05-17T11:56:05.792Z,17.90
2023-05-17T11:59:10.028Z,18.43
2023-05-17T12:02:28.720Z,18.83
2023-05-17T12:05:32.898Z,19.27
2023-05-17T12:08:38.234Z,19.17
2023-05-17T12:11:43.700Z,19.23
2023-05-17T12:14:48.614Z,20.07
2023-05-17T12:17:56.861Z,20.00
2023-05-17T12:21:01.777Z,19.10
2023-05-17T12:24:06.340Z,20.13
2023-05-17T12:27:10.795Z,21.97
2023-05-17T12:30:18.569Z,19.20
2023-05-17T12:33:24.081Z,20.30
2023-05-17T12:36:30.754Z,22.97
2023-05-17T12:39:34.791Z,18.57
2023-05-17T12:42:41.171Z,18.67
2023-05-17T12:45:45.340Z,19.27
2023-05-17T12:48:52.277Z,19.10
2023-05-17T12:51:56.372Z,20.20
2023-05-17T12:55:01.133Z,20.20
2023-05-17T12:58:05.980Z,20.20
2023-05-17T13:01:14.090Z,22.97
2023-05-17T13:04:20.704Z,28.57
2023-05-17T13:07:26.181Z,27.60
2023-05-17T13:10:30.759Z,28.53
2023-05-17T13:13:35.560Z,27.17
2023-05-17T13:16:40.176Z,27.13
2023-05-17T13:19:45.845Z,30.50
2023-05-17T13:22:50.314Z,28.80
2023-05-17T13:25:54.764Z,22.97
2023-05-17T13:28:58.838Z,21.13
2023-05-17T13:32:03.241Z,21.07
2023-05-17T13:35:09.783Z,20.43
2023-05-17T13:38:13.792Z,21.60
2023-05-17T13:41:17.919Z,18.23
2023-05-17T13:44:22.070Z,19.43
2023-05-17T13:47:26.625Z,21.10
2023-05-17T13:50:32.263Z,18.47
2023-05-17T13:53:36.576Z,18.37
2023-05-17T13:56:40.614Z,17.37
2023-05-17T13:59:45.957Z,19.23
2023-05-17T14:02:50.434Z,18.57
2023-05-17T14:05:56.054Z,18.70
2023-05-17T14:09:01.237Z,21.10
2023-05-17T14:12:05.906Z,21.47
2023-05-17T14:15:11.636Z,22.70
2023-05-17T14:18:15.868Z,24.23
2023-05-17T14:21:21.601Z,23.27
2023-05-17T14:24:25.815Z,22.93
2023-05-17T14:27:29.964Z,22.93
2023-05-17T14:30:34.611Z,22.60
2023-05-17T14:33:38.803Z,22.63
2023-05-17T14:36:44.365Z,22.60
2023-05-17T14:40:05.325Z,23.23
2023-05-17T14:43:10.950Z,19.93
2023-05-17T14:46:15.137Z,20.80
2023-05-17T14:49:19.241Z,21.30
2023-05-17T14:52:24.878Z,20.40
2023-05-17T14:55:29.115Z,19.27
2023-05-17T14:58:33.383Z,19.73
2023-05-17T15:01:37.488Z,19.83
2023-05-17T15:04:41.956Z,19.70
2023-05-17T15:07:47.791Z,19.13
2023-05-17T15:10:52.190Z,18.43
2023-05-17T15:13:56.738Z,15.80
2023-05-17T15:17:00.803Z,13.27
2023-05-17T15:20:05.364Z,15.07
2023-05-17T15:23:11.051Z,15.93
2023-05-17T15:26:15.049Z,16.10
2023-05-17T15:29:19.136Z,18.80
2023-05-17T15:32:23.256Z,17.90
2023-05-17T15:35:28.223Z,19.63
2023-05-17T15:38:33.801Z,18.23
2023-05-17T15:41:37.878Z,18.70
2023-05-17T15:44:41.893Z,17.10
2023-05-17T15:47:46.669Z,18.70
2023-05-17T15:50:50.932Z,19.30
2023-05-17T15:53:57.463Z,18.80
2023-05-17T15:57:01.512Z,19.53
2023-05-17T16:00:06.572Z,20.03
2023-05-17T16:03:10.700Z,19.90
2023-05-17T16:06:16.046Z,20.47
2023-05-17T16:09:21.711Z,20.30
2023-05-17T16:12:25.840Z,21.43
2023-05-17T16:15:29.997Z,21.07
2023-05-17T16:18:34.455Z,21.57
2023-05-17T16:21:39.297Z,21.70
2023-05-17T16:24:44.746Z,21.50
2023-05-17T16:27:49.560Z,22.03
2023-05-17T16:30:54.742Z,23.13
2023-05-17T16:33:58.954Z,22.47
2023-05-17T16:37:04.420Z,22.40
2023-05-17T16:40:11.239Z,22.03
2023-05-17T16:43:16.563Z,21.70
2023-05-17T16:46:24.996Z,22.60
2023-05-17T16:49:30.537Z,21.83
2023-05-17T16:52:34.503Z,22.67
2023-05-17T16:55:40.183Z,22.83
2023-05-17T16:58:44.279Z,23.60
2023-05-17T17:01:48.308Z,24.33
2023-05-17T17:04:52.591Z,22.27
2023-05-17T17:07:56.817Z,24.60
2023-05-17T17:11:02.315Z,20.80
2023-05-17T17:14:07.188Z,18.93
2023-05-17T17:17:11.250Z,20.87
2023-05-17T17:20:15.557Z,20.10
2023-05-17T17:23:19.613Z,21.43
2023-05-17T17:26:25.145Z,19.80
2023-05-17T17:29:29.233Z,23.37
2023-05-17T17:32:33.471Z,20.17
2023-05-17T17:35:37.618Z,20.37
2023-05-17T17:38:41.734Z,20.80
2023-05-17T17:41:47.268Z,20.03
2023-05-17T17:44:51.444Z,19.90
2023-05-17T17:47:55.588Z,20.30
2023-05-17T17:50:59.715Z,20.00
2023-05-17T17:54:05.873Z,18.73
2023-05-17T17:57:11.400Z,19.60
2023-05-17T18:00:16.541Z,19.00
2023-05-17T18:03:20.604Z,19.03
2023-05-17T18:06:25.109Z,18.40
2023-05-17T18:09:29.128Z,18.97
2023-05-17T18:12:34.816Z,18.13
2023-05-17T18:15:40.312Z,18.60
2023-05-17T18:18:44.662Z,18.67
2023-05-17T18:21:50.585Z,20.57
2023-05-17T18:24:54.716Z,20.50
2023-05-17T18:28:00.227Z,21.53
2023-05-17T18:31:04.311Z,20.50
2023-05-17T18:34:08.400Z,20.37
2023-05-17T18:37:12.420Z,21.20
2023-05-17T18:40:16.838Z,23.03
2023-05-17T18:43:22.335Z,23.43
2023-05-17T18:46:26.569Z,24.30
2023-05-17T18:49:30.589Z,25.30
2023-05-17T18:52:34.751Z,23.67
2023-05-17T18:55:38.855Z,24.20
2023-05-17T18:58:46.197Z,23.70
2023-05-17T19:01:50.704Z,23.53
2023-05-17T19:04:54.734Z,36.50
2023-05-17T19:07:58.776Z,27.87
2023-05-17T19:11:04.419Z,25.87
2023-05-17T19:14:09.854Z,22.90
2023-05-17T19:17:14.130Z,23.77
2023-05-17T19:20:18.338Z,23.30
2023-05-17T19:23:23.079Z,24.53
2023-05-17T19:26:27.260Z,24.93
2023-05-17T19:29:33.369Z,25.40
2023-05-17T19:32:38.461Z,23.97
2023-05-17T19:35:42.625Z,25.17
2023-05-17T19:38:46.714Z,25.10
2023-05-17T19:41:50.983Z,24.90
2023-05-17T19:44:56.520Z,24.80
2023-05-17T19:48:00.690Z,24.77
2023-05-17T19:51:04.922Z,25.87
2023-05-17T19:54:08.924Z,26.13
2023-05-17T19:57:13.010Z,26.07
2023-05-17T20:00:19.402Z,26.77
2023-05-17T20:03:23.494Z,25.93
2023-05-17T20:06:27.653Z,27.37
2023-05-17T20:09:32.442Z,27.13
2023-05-17T20:12:36.539Z,28.43
2023-05-17T20:15:42.179Z,27.60
2023-05-17T20:18:46.870Z,29.60
2023-05-17T20:21:50.930Z,29.33
2023-05-17T20:24:57.174Z,28.83
2023-05-17T20:28:02.110Z,28.63
2023-05-17T20:31:07.660Z,28.83
2023-05-17T20:34:12.276Z,29.50
2023-05-17T20:37:16.407Z,28.53
2023-05-17T20:40:21.226Z,27.90
2023-05-17T20:43:29.117Z,27.70
2023-05-17T20:46:35.764Z,29.77
2023-05-17T20:49:40.026Z,28.40
2023-05-17T20:52:44.169Z,27.60
2023-05-17T20:55:48.154Z,27.87
2023-05-17T20:58:52.191Z,24.37
2023-05-17T21:01:57.964Z,26.73
2023-05-17T21:05:03.642Z,25.17
2023-05-17T21:08:08.833Z,23.47
2023-05-17T21:11:15.559Z,21.70
2023-05-17T21:14:19.630Z,19.67
2023-05-17T21:17:25.171Z,16.23
2023-05-17T21:20:29.429Z,18.53
2023-05-17T21:23:33.589Z,15.67
2023-05-17T21:26:40.562Z,13.63
2023-05-17T21:29:45.389Z,12.70
2023-05-17T21:32:50.963Z,11.97
2023-05-17T21:35:55.077Z,12.93
2023-05-17T21:38:59.039Z,9.90
2023-05-17T21:42:03.470Z,11.07
2023-05-17T21:45:08.614Z,11.13
2023-05-17T21:48:14.279Z,10.30
2023-05-17T21:51:18.388Z,8.87
2023-05-17T21:54:22.514Z,9.30
2023-05-17T21:57:26.589Z,8.47
2023-05-17T22:00:30.959Z,8.17
2023-05-17T22:03:36.853Z,11.03
2023-05-17T22:06:40.970Z,12.17
2023-05-17T22:09:45.896Z,9.13
2023-05-17T22:12:50.557Z,7.40
2023-05-17T22:15:57.818Z,8.83
2023-05-17T22:19:04.175Z,8.97
2023-05-17T22:22:08.785Z,9.27
2023-05-17T22:25:13.572Z,7.90
2023-05-17T22:28:18.888Z,8.20
2023-05-17T22:31:23.132Z,8.40
2023-05-17T22:34:28.794Z,9.57
2023-05-17T22:37:33.191Z,8.93
2023-05-17T22:40:37.414Z,8.80
2023-05-17T22:43:42.061Z,7.20
2023-05-17T22:46:47.002Z,7.53
2023-05-17T22:49:53.279Z,7.53
2023-05-17T22:52:58.951Z,7.47
2023-05-17T22:56:02.894Z,7.17
2023-05-17T22:59:06.890Z,7.47
2023-05-17T23:02:11.150Z,7.10
2023-05-17T23:05:16.652Z,7.37
2023-05-17T23:08:22.661Z,7.20
2023-05-17T23:11:26.611Z,7.50
2023-05-17T23:14:30.597Z,7.60
2023-05-17T23:17:35.969Z,7.23
2023-05-17T23:20:42.433Z,6.50
2023-05-17T23:23:47.651Z,7.10
2023-05-17T23:26:51.587Z,7.47
2023-05-17T23:29:56.768Z,8.10
2023-05-17T23:33:02.919Z,7.43
2023-05-17T23:36:09.209Z,6.70
2023-05-17T23:39:13.234Z,7.77
2023-05-17T23:42:17.158Z,8.40
2023-05-17T23:45:21.541Z,7.63
2023-05-17T23:48:25.981Z,7.13
2023-05-17T23:51:33.528Z,7.73
2023-05-17T23:54:37.553Z,7.90
2023-05-17T23:57:42.716Z,7.90
